Time;durP1;ratioP1;P1;durP2;ratioP2;P2;SDS_P1;SDS_P2;PMS_P1;PMS_P2;Temp;Humidity;BMP_temperature;BMP_pressure;BME280_temperature;BME280_humidity;BME280_pressure;Samples;Min_cycle;Max_cycle;Signal;HPM_P1;HPM_P2
2024/01/04 00:01:28;;;;;;;34.70;9.07;;;12.90;99.90;;;;;;5092300;28;20020;-75
2024/01/04 00:03:54;;;;;;;35.17;8.00;;;13.00;99.90;;;;;;5095627;28;20028;-75
2024/01/04 00:06:20;;;;;;;33.47;8.43;;;13.30;99.90;;;;;;5095917;28;20041;-75
2024/01/04 00:08:46;;;;;;;38.33;8.82;;;13.50;99.90;;;;;;5095470;28;20089;-75
2024/01/04 00:11:12;;;;;;;32.05;8.07;;;13.70;99.90;;;;;;5095591;28;20016;-75
2024/01/04 00:13:38;;;;;;;31.55;8.00;;;13.70;99.90;;;;;;5095860;28;20563;-75
2024/01/04 00:16:09;;;;;;;32.13;8.00;;;13.70;99.90;;;;;;5095077;28;20024;-75
2024/01/04 00:18:35;;;;;;;38.25;9.18;;;13.90;99.90;;;;;;5095101;28;20024;-75
2024/01/04 00:21:02;;;;;;;35.38;8.25;;;13.90;99.90;;;;;;5095734;28;20054;-75
2024/01/04 00:23:28;;;;;;;40.85;8.55;;;13.90;99.90;;;;;;5095285;28;20108;-76
2024/01/04 00:25:54;;;;;;;41.05;8.77;;;14.00;99.90;;;;;;5095174;28;20051;-75
2024/01/04 00:28:19;;;;;;;37.90;9.90;;;13.70;99.90;;;;;;5095523;28;20036;-76
2024/01/04 00:30:45;;;;;;;34.88;8.20;;;13.50;99.90;;;;;;5094697;28;20493;-76
2024/01/04 00:33:11;;;;;;;37.25;8.63;;;13.40;99.90;;;;;;5094005;28;20024;-76
2024/01/04 00:35:36;;;;;;;32.85;8.57;;;13.30;99.90;;;;;;5095081;28;20028;-76
2024/01/04 00:38:02;;;;;;;38.08;8.80;;;13.20;99.90;;;;;;5095024;28;20016;-75
2024/01/04 00:40:32;;;;;;;38.05;8.60;;;13.10;99.90;;;;;;5094777;28;20074;-76
2024/01/04 00:42:58;;;;;;;37.13;8.75;;;13.00;99.90;;;;;;5095001;28;20028;-76
2024/01/04 00:45:23;;;;;;;42.35;8.60;;;13.00;99.90;;;;;;5094453;28;20044;-76
2024/01/04 00:47:49;;;;;;;37.58;8.68;;;13.10;99.90;;;;;;5094888;28;20047;-76
2024/01/04 00:50:15;;;;;;;36.33;9.38;;;13.00;99.90;;;;;;5095005;28;20044;-76
2024/01/04 00:52:41;;;;;;;43.83;9.77;;;13.00;99.90;;;;;;5094675;28;20024;-76
2024/01/04 00:55:08;;;;;;;46.45;10.05;;;12.90;99.90;;;;;;5094634;28;20028;-76
2024/01/04 00:57:33;;;;;;;41.70;9.35;;;13.00;99.90;;;;;;5095183;28;20145;-76
2024/01/04 00:59:59;;;;;;;40.20;8.57;;;13.00;99.90;;;;;;5094262;28;20044;-75
2024/01/04 01:02:25;;;;;;;27.70;7.30;;;13.00;99.90;;;;;;5094399;28;20020;-75
2024/01/04 01:04:50;;;;;;;28.48;6.78;;;13.00;99.90;;;;;;5094525;28;20034;-76
2024/01/04 01:07:16;;;;;;;22.45;5.60;;;12.90;99.90;;;;;;5094476;28;20056;-76
2024/01/04 01:09:41;;;;;;;23.45;5.68;;;12.90;99.90;;;;;;5094214;28;20040;-76
2024/01/04 01:12:07;;;;;;;22.50;5.32;;;12.90;99.90;;;;;;5094660;28;20037;-76
2024/01/04 01:14:33;;;;;;;21.05;6.18;;;12.90;99.90;;;;;;5092759;28;20508;-76
2024/01/04 01:16:59;;;;;;;19.50;5.30;;;12.80;99.90;;;;;;5094428;28;20059;-76
2024/01/04 01:19:24;;;;;;;25.65;5.40;;;12.80;99.90;;;;;;5094090;28;20032;-76
2024/01/04 01:21:50;;;;;;;22.90;5.10;;;12.80;99.90;;;;;;5094186;28;20028;-76
2024/01/04 01:24:16;;;;;;;25.45;5.32;;;12.70;99.90;;;;;;5092784;28;20546;-76
2024/01/04 01:26:43;;;;;;;22.05;6.15;;;12.70;99.90;;;;;;5093986;28;20024;-76
2024/01/04 01:29:09;;;;;;;19.70;4.90;;;12.70;99.90;;;;;;5093995;28;20081;-76
2024/01/04 01:31:42;;;;;;;23.80;5.25;;;12.70;99.90;;;;;;5095259;28;20052;-76
2024/01/04 01:34:08;;;;;;;22.17;5.93;;;12.60;99.90;;;;;;5094342;28;20059;-75
2024/01/04 01:36:34;;;;;;;22.98;5.43;;;12.60;99.90;;;;;;5094017;28;20028;-76
2024/01/04 01:38:59;;;;;;;26.73;5.70;;;12.60;99.90;;;;;;5093765;28;20028;-76
2024/01/04 01:41:25;;;;;;;23.55;5.63;;;12.60;99.90;;;;;;5093589;28;20032;-76
2024/01/04 01:43:51;;;;;;;24.85;5.75;;;12.60;99.90;;;;;;5093521;28;20036;-75
2024/01/04 01:46:17;;;;;;;26.42;6.57;;;12.50;99.90;;;;;;5093718;28;20081;-76
2024/01/04 01:48:43;;;;;;;20.85;5.70;;;12.90;99.90;;;;;;5093609;28;20032;-75
2024/01/04 01:51:10;;;;;;;21.58;5.95;;;13.00;99.90;;;;;;5093588;28;20024;-75
2024/01/04 01:53:36;;;;;;;29.70;6.70;;;13.10;99.90;;;;;;5093777;28;20405;-75
2024/01/04 01:56:02;;;;;;;26.67;6.10;;;13.20;99.90;;;;;;5093545;28;20027;-75
2024/01/04 01:58:27;;;;;;;23.33;6.30;;;13.30;99.90;;;;;;5093224;28;20030;-75
2024/01/04 02:00:53;;;;;;;25.20;6.18;;;13.30;99.90;;;;;;5093317;28;20115;-76
2024/01/04 02:03:19;;;;;;;28.02;6.78;;;13.30;99.90;;;;;;5093710;28;20489;-75
2024/01/04 02:05:45;;;;;;;27.42;6.40;;;13.20;99.90;;;;;;5093439;28;20039;-76
2024/01/04 02:08:11;;;;;;;24.63;6.18;;;13.10;99.90;;;;;;5093149;28;20048;-76
2024/01/04 02:10:36;;;;;;;28.67;6.82;;;12.80;99.90;;;;;;5093173;28;20437;-76
2024/01/04 02:13:02;;;;;;;27.42;7.03;;;12.60;99.90;;;;;;5092845;28;20077;-76
2024/01/04 02:15:27;;;;;;;29.98;6.90;;;12.40;99.90;;;;;;5093461;28;20027;-76
2024/01/04 02:17:53;;;;;;;30.40;6.60;;;12.30;99.90;;;;;;5091951;28;20028;-76
2024/01/04 02:20:19;;;;;;;25.38;6.65;;;12.10;99.90;;;;;;5092924;28;20012;-76
2024/01/04 02:22:45;;;;;;;25.05;6.93;;;12.00;99.90;;;;;;5092991;28;20160;-75
2024/01/04 02:25:11;;;;;;;25.45;6.05;;;11.90;99.90;;;;;;5092336;28;20021;-74
2024/01/04 02:27:36;;;;;;;22.00;6.20;;;11.90;99.90;;;;;;5092888;28;20069;-75
2024/01/04 02:30:03;;;;;;;26.65;6.60;;;11.70;99.90;;;;;;5093439;28;20036;-75
2024/01/04 02:32:29;;;;;;;31.60;7.20;;;11.70;99.90;;;;;;5092825;28;20085;-75
2024/01/04 02:34:54;;;;;;;28.02;6.60;;;11.50;99.90;;;;;;5092842;28;20490;-75
2024/01/04 02:37:20;;;;;;;27.55;6.88;;;11.50;99.90;;;;;;5092868;28;20110;-75
2024/01/04 02:39:45;;;;;;;26.27;7.18;;;11.50;99.90;;;;;;5092431;28;20067;-75
2024/01/04 02:42:11;;;;;;;31.42;7.57;;;11.50;99.90;;;;;;5092458;28;20146;-75
2024/01/04 02:44:37;;;;;;;26.40;6.88;;;11.40;99.90;;;;;;5092548;28;20034;-74
2024/01/04 02:47:03;;;;;;;31.00;6.80;;;11.40;99.90;;;;;;5092671;28;20044;-75
2024/01/04 02:49:29;;;;;;;25.67;6.63;;;11.40;99.90;;;;;;5092373;28;20489;-75
2024/01/04 02:51:54;;;;;;;28.67;7.13;;;11.30;99.90;;;;;;5092554;28;20497;-75
2024/01/04 02:54:20;;;;;;;28.42;7.00;;;11.30;99.90;;;;;;5091981;28;20028;-75
2024/01/04 02:56:46;;;;;;;30.77;7.35;;;11.30;99.90;;;;;;5092444;28;20394;-75
2024/01/04 02:59:12;;;;;;;30.05;7.35;;;11.20;99.90;;;;;;5092476;28;20027;-76
2024/01/04 03:01:37;;;;;;;36.45;8.43;;;11.20;99.90;;;;;;5092880;28;20050;-75
2024/01/04 03:04:03;;;;;;;26.95;7.95;;;11.20;99.90;;;;;;5092250;28;20442;-75
2024/01/04 03:06:30;;;;;;;30.23;9.15;;;11.10;99.90;;;;;;5092662;28;20524;-75
2024/01/04 03:08:56;;;;;;;33.47;10.23;;;11.10;99.90;;;;;;5091821;28;20040;-75
2024/01/04 03:11:22;;;;;;;38.22;10.60;;;11.10;99.90;;;;;;5092158;28;20035;-75
2024/01/04 03:13:47;;;;;;;33.47;9.95;;;11.10;99.90;;;;;;5092373;28;20028;-75
2024/01/04 03:16:19;;;;;;;36.40;10.60;;;11.00;99.90;;;;;;5092026;28;20058;-75
2024/01/04 03:18:45;;;;;;;36.65;10.75;;;11.00;99.90;;;;;;5092539;28;20028;-76
2024/01/04 03:21:10;;;;;;;33.95;8.88;;;10.90;99.90;;;;;;5092089;28;20043;-76
2024/01/04 03:23:36;;;;;;;34.78;9.18;;;11.00;99.90;;;;;;5091895;28;20397;-75
2024/01/04 03:26:02;;;;;;;35.53;9.75;;;11.00;99.90;;;;;;5092152;28;20385;-76
2024/01/04 03:28:27;;;;;;;37.13;10.30;;;10.90;99.90;;;;;;5090702;28;20021;-74
2024/01/04 03:30:53;;;;;;;37.58;9.45;;;10.90;99.90;;;;;;5092412;28;20033;-74
2024/01/04 03:33:18;;;;;;;37.60;9.85;;;11.00;99.90;;;;;;5092104;28;20501;-75
2024/01/04 03:35:44;;;;;;;41.88;9.90;;;11.30;99.90;;;;;;5092012;28;20073;-74
2024/01/04 03:38:10;;;;;;;33.47;8.25;;;11.30;99.90;;;;;;5095543;28;20024;-74
2024/01/04 03:40:35;;;;;;;31.67;8.35;;;11.50;99.90;;;;;;5096411;28;20020;-75
2024/01/04 03:43:02;;;;;;;33.78;8.00;;;11.50;99.90;;;;;;5095964;28;20054;-75
2024/01/04 03:45:28;;;;;;;30.65;7.95;;;11.50;99.90;;;;;;5096170;28;20043;-75
2024/01/04 03:47:54;;;;;;;33.97;8.35;;;11.60;99.90;;;;;;5095806;28;20046;-74
2024/01/04 03:50:19;;;;;;;34.58;8.48;;;11.70;99.90;;;;;;5095852;28;20032;-75
2024/01/04 03:52:45;;;;;;;33.15;8.43;;;11.70;99.90;;;;;;5095976;28;20016;-75
2024/01/04 03:55:10;;;;;;;33.72;8.15;;;11.50;99.90;;;;;;5095787;28;20417;-75
2024/01/04 03:57:36;;;;;;;34.33;8.30;;;11.40;99.90;;;;;;5095841;28;20024;-75
2024/01/04 04:00:03;;;;;;;31.25;8.43;;;11.20;99.90;;;;;;5095670;28;20031;-75
2024/01/04 04:02:28;;;;;;;33.50;7.82;;;11.10;99.90;;;;;;5095642;28;20504;-75
2024/01/04 04:04:56;;;;;;;41.42;8.98;;;11.10;99.90;;;;;;5095597;28;20029;-75
2024/01/04 04:07:24;;;;;;;41.08;9.05;;;11.00;99.90;;;;;;5095144;28;20039;-75
2024/01/04 04:09:50;;;;;;;37.38;8.52;;;11.00;99.90;;;;;;5095788;28;20486;-75
2024/01/04 04:12:15;;;;;;;31.95;8.65;;;11.00;99.90;;;;;;5095506;28;20142;-75
2024/01/04 04:14:41;;;;;;;42.40;9.77;;;10.90;99.90;;;;;;5095426;28;20020;-75
2024/01/04 04:17:07;;;;;;;35.78;8.68;;;10.80;99.90;;;;;;5095365;28;20031;-75
2024/01/04 04:19:33;;;;;;;45.67;9.30;;;10.80;99.90;;;;;;5095309;28;20031;-75
2024/01/04 04:21:58;;;;;;;38.63;9.15;;;10.80;99.90;;;;;;5095081;28;20024;-75
2024/01/04 04:24:24;;;;;;;41.15;9.63;;;10.70;99.90;;;;;;5095324;28;20028;-75
2024/01/04 04:26:50;;;;;;;40.25;9.75;;;10.70;99.90;;;;;;5094124;28;20024;-75
2024/01/04 04:29:15;;;;;;;32.80;8.63;;;10.60;99.90;;;;;;5095498;28;20089;-75
2024/01/04 04:31:41;;;;;;;39.00;9.38;;;10.60;99.90;;;;;;5095148;28;20069;-74
2024/01/04 04:34:06;;;;;;;39.38;9.18;;;10.60;99.90;;;;;;5095151;28;20024;-75
2024/01/04 04:36:32;;;;;;;46.03;11.18;;;10.50;99.90;;;;;;5094857;28;20034;-75
2024/01/04 04:39:02;;;;;;;40.35;9.23;;;10.50;99.90;;;;;;5095457;28;20093;-75
2024/01/04 04:41:28;;;;;;;39.67;8.95;;;10.50;99.90;;;;;;5094798;28;20431;-75
2024/01/04 04:43:53;;;;;;;39.83;8.75;;;10.50;99.90;;;;;;5095108;28;20039;-75
2024/01/04 04:46:20;;;;;;;37.72;8.55;;;10.40;99.90;;;;;;5094655;28;20221;-75
2024/01/04 04:48:45;;;;;;;33.72;9.35;;;10.40;99.90;;;;;;5094970;28;20398;-75
2024/01/04 04:51:11;;;;;;;32.75;8.63;;;10.40;99.90;;;;;;5094395;28;20028;-75
2024/01/04 04:53:37;;;;;;;40.75;9.10;;;10.40;99.90;;;;;;5094943;28;20032;-75
2024/01/04 04:56:03;;;;;;;33.22;7.55;;;10.30;99.90;;;;;;5094786;28;20020;-75
2024/01/04 04:58:32;;;;;;;32.53;8.52;;;10.30;99.90;;;;;;5094714;28;20048;-75
2024/01/04 05:00:57;;;;;;;36.55;8.55;;;10.20;99.90;;;;;;5094540;28;20020;-75
2024/01/04 05:03:23;;;;;;;35.88;9.20;;;10.20;99.90;;;;;;5094764;28;20538;-75
2024/01/04 05:05:49;;;;;;;31.50;8.35;;;10.20;99.90;;;;;;5094256;28;20035;-75
2024/01/04 05:08:14;;;;;;;32.63;8.13;;;10.20;99.90;;;;;;5094887;28;20591;-75
2024/01/04 05:10:40;;;;;;;33.70;8.10;;;10.10;99.90;;;;;;5094327;28;20432;-75
2024/01/04 05:13:06;;;;;;;33.80;8.68;;;10.10;99.90;;;;;;5094523;28;20059;-74
2024/01/04 05:15:31;;;;;;;33.95;8.63;;;10.20;99.90;;;;;;5094279;28;20389;-74
2024/01/04 05:17:57;;;;;;;35.55;8.95;;;10.40;99.90;;;;;;5094317;28;20116;-74
2024/01/04 05:20:22;;;;;;;31.40;8.48;;;10.60;99.90;;;;;;5094272;28;20508;-74
2024/01/04 05:22:48;;;;;;;32.70;8.43;;;10.70;99.90;;;;;;5094123;28;20035;-74
2024/01/04 05:25:15;;;;;;;31.17;7.70;;;10.80;99.90;;;;;;5094384;28;20028;-74
2024/01/04 05:27:41;;;;;;;31.98;8.48;;;10.80;99.90;;;;;;5094362;28;20099;-74
2024/01/04 05:30:07;;;;;;;30.25;8.15;;;10.90;99.90;;;;;;5093720;28;20165;-74
2024/01/04 05:32:36;;;;;;;32.25;8.20;;;11.00;99.90;;;;;;5094153;28;20024;-74
2024/01/04 05:35:02;;;;;;;29.63;7.85;;;10.90;99.90;;;;;;5094136;28;20043;-74
2024/01/04 05:37:28;;;;;;;28.83;7.82;;;10.70;99.90;;;;;;5093875;28;20098;-74
2024/01/04 05:39:54;;;;;;;39.65;9.05;;;10.70;99.90;;;;;;5094045;28;20150;-74
2024/01/04 05:42:19;;;;;;;34.03;8.70;;;10.50;99.90;;;;;;5093458;28;20033;-74
2024/01/04 05:44:45;;;;;;;35.60;8.82;;;10.40;99.90;;;;;;5093280;28;20074;-74
2024/01/04 05:47:11;;;;;;;39.70;8.98;;;10.40;99.90;;;;;;5094288;28;20115;-74
2024/01/04 05:49:37;;;;;;;35.30;9.20;;;10.30;99.90;;;;;;5093212;28;20031;-74
2024/01/04 05:52:03;;;;;;;35.88;9.20;;;10.30;99.90;;;;;;5093557;28;20070;-74
2024/01/04 05:54:29;;;;;;;31.90;8.30;;;10.20;99.90;;;;;;5093869;28;20032;-73
2024/01/04 05:56:54;;;;;;;36.25;8.25;;;10.10;99.90;;;;;;5093510;28;20024;-74
2024/01/04 05:59:24;;;;;;;27.02;7.60;;;10.10;99.90;;;;;;5093023;28;20028;-74
2024/01/04 06:01:54;;;;;;;39.47;8.45;;;10.00;99.90;;;;;;5093509;28;20028;-74
2024/01/04 06:04:19;;;;;;;34.55;8.35;;;10.00;99.90;;;;;;5092968;28;20028;-74
2024/01/04 06:06:47;;;;;;;35.10;8.10;;;10.00;99.90;;;;;;5093244;28;20478;-74
2024/01/04 06:09:13;;;;;;;35.05;8.18;;;9.90;99.90;;;;;;5093668;28;20097;-74
2024/01/04 06:11:38;;;;;;;37.92;8.70;;;9.90;99.90;;;;;;5093271;28;20044;-74
2024/01/04 06:14:07;;;;;;;31.55;7.75;;;9.90;99.90;;;;;;5093270;28;20024;-73
2024/01/04 06:16:33;;;;;;;37.40;8.85;;;9.90;99.90;;;;;;5093347;28;20024;-74
2024/01/04 06:18:59;;;;;;;31.25;8.02;;;9.90;99.90;;;;;;5092988;28;20036;-74
2024/01/04 06:21:24;;;;;;;32.08;8.10;;;9.80;99.90;;;;;;5092942;28;20110;-74
2024/01/04 06:23:51;;;;;;;34.90;9.25;;;9.80;99.90;;;;;;5093375;28;20028;-74
2024/01/04 06:26:18;;;;;;;29.77;8.20;;;9.70;99.90;;;;;;5092953;28;20028;-74
2024/01/04 06:28:44;;;;;;;31.13;7.97;;;9.70;99.90;;;;;;5092987;28;20166;-74
2024/01/04 06:31:09;;;;;;;28.75;8.00;;;9.70;99.90;;;;;;5092995;28;20099;-74
2024/01/04 06:33:35;;;;;;;32.55;8.60;;;9.70;99.90;;;;;;5092481;28;20028;-74
2024/01/04 06:36:02;;;;;;;29.63;8.35;;;9.60;99.90;;;;;;5092810;28;20028;-74
2024/01/04 06:38:28;;;;;;;33.92;8.70;;;9.70;99.90;;;;;;5092922;28;20038;-74
2024/01/04 06:40:57;;;;;;;31.65;8.32;;;9.60;99.90;;;;;;5092429;28;20086;-74
2024/01/04 06:43:23;;;;;;;32.50;7.57;;;9.50;99.90;;;;;;5092671;28;20024;-74
2024/01/04 06:45:49;;;;;;;28.83;7.63;;;9.50;99.90;;;;;;5092573;28;20052;-74
2024/01/04 06:48:15;;;;;;;30.55;7.22;;;9.40;99.90;;;;;;5092634;28;20073;-74
2024/01/04 06:50:40;;;;;;;29.02;7.88;;;9.40;99.90;;;;;;5092513;28;20028;-74
2024/01/04 06:53:07;;;;;;;33.42;8.82;;;9.40;99.90;;;;;;5092561;28;20028;-74
2024/01/04 06:55:32;;;;;;;25.75;8.13;;;9.40;99.90;;;;;;5092437;28;20512;-74
2024/01/04 06:57:58;;;;;;;28.98;7.85;;;9.40;99.90;;;;;;5092809;28;20024;-74
2024/01/04 07:00:23;;;;;;;30.75;7.63;;;9.30;99.90;;;;;;5092380;28;20035;-74
2024/01/04 07:02:49;;;;;;;28.13;7.28;;;9.40;99.90;;;;;;5090741;28;20089;-73
2024/01/04 07:05:15;;;;;;;26.73;7.57;;;9.60;99.90;;;;;;5092826;28;20020;-73
2024/01/04 07:07:40;;;;;;;29.90;7.60;;;9.80;99.90;;;;;;5092242;28;20440;-73
2024/01/04 07:10:07;;;;;;;32.67;8.20;;;9.90;99.90;;;;;;5092078;28;20115;-74
2024/01/04 07:12:33;;;;;;;28.75;7.68;;;10.00;99.90;;;;;;5092264;28;20031;-74
2024/01/04 07:14:58;;;;;;;30.73;7.38;;;10.10;99.90;;;;;;5092673;28;20092;-73
2024/01/04 07:17:24;;;;;;;26.33;7.10;;;10.20;99.90;;;;;;5092034;28;20095;-73
2024/01/04 07:19:50;;;;;;;24.05;6.68;;;10.10;99.90;;;;;;5092321;28;20103;-74
2024/01/04 07:22:16;;;;;;;29.73;6.95;;;10.10;99.90;;;;;;5092115;28;20505;-74
2024/01/04 07:24:43;;;;;;;29.17;7.10;;;10.00;99.90;;;;;;5092523;28;20480;-74
2024/01/04 07:27:09;;;;;;;26.10;6.80;;;9.80;99.90;;;;;;5092435;28;20474;-74
2024/01/04 07:29:35;;;;;;;30.83;7.72;;;9.70;99.90;;;;;;5091614;28;20064;-74
2024/01/04 07:32:01;;;;;;;22.70;7.18;;;9.60;99.90;;;;;;5091726;28;20108;-74
2024/01/04 07:34:27;;;;;;;26.25;7.45;;;9.50;99.90;;;;;;5092054;28;20081;-74
2024/01/04 07:36:53;;;;;;;33.17;8.20;;;9.40;99.90;;;;;;5092075;28;20095;-73
2024/01/04 07:39:18;;;;;;;30.05;7.97;;;9.40;99.90;;;;;;5092419;28;20556;-74
2024/01/04 07:41:44;;;;;;;29.08;9.13;;;9.40;99.90;;;;;;5091636;28;20028;-74
2024/01/04 07:44:10;;;;;;;33.78;9.07;;;9.30;99.90;;;;;;5091677;28;20504;-72
2024/01/04 07:46:36;;;;;;;27.13;8.20;;;9.30;99.90;;;;;;5091758;28;20048;-74
2024/01/04 07:49:06;;;;;;;32.00;8.45;;;9.30;99.90;;;;;;5091736;28;20036;-74
2024/01/04 07:51:32;;;;;;;27.45;7.55;;;9.20;99.90;;;;;;5091856;28;20538;-74
2024/01/04 07:53:58;;;;;;;26.33;7.43;;;9.20;99.90;;;;;;5091411;28;20036;-73
2024/01/04 07:56:23;;;;;;;25.45;7.47;;;9.20;99.90;;;;;;5092231;28;20020;-74
2024/01/04 07:58:49;;;;;;;27.27;7.97;;;9.20;99.90;;;;;;5091515;28;20032;-74
2024/01/04 08:01:15;;;;;;;26.40;8.10;;;9.20;99.90;;;;;;5091957;28;20020;-74
2024/01/04 08:03:40;;;;;;;30.80;8.63;;;9.20;99.90;;;;;;5091741;28;20035;-74
2024/01/04 08:06:06;;;;;;;32.65;9.00;;;9.20;99.90;;;;;;5091626;28;20020;-74
2024/01/04 08:08:32;;;;;;;28.48;8.77;;;9.20;99.90;;;;;;5091690;28;20050;-74
2024/01/04 08:11:00;;;;;;;27.08;8.30;;;9.20;99.90;;;;;;5092001;28;20020;-74
2024/01/04 08:13:26;;;;;;;26.77;7.95;;;9.20;99.90;;;;;;5091243;28;20036;-74
2024/01/04 08:15:51;;;;;;;24.95;8.82;;;9.20;99.90;;;;;;5091764;28;20043;-74
2024/01/04 08:18:20;;;;;;;26.63;8.23;;;9.20;99.90;;;;;;5091685;28;20036;-74
2024/01/04 08:20:46;;;;;;;23.23;8.50;;;9.20;99.90;;;;;;5091620;28;20023;-74
2024/01/04 08:23:12;;;;;;;30.30;10.02;;;9.10;99.90;;;;;;5093653;28;20509;-74
2024/01/04 08:25:38;;;;;;;29.33;9.35;;;9.10;99.90;;;;;;5095173;28;20103;-74
2024/01/04 08:28:04;;;;;;;30.10;9.48;;;9.20;99.90;;;;;;5094854;28;20568;-74
2024/01/04 08:30:30;;;;;;;30.08;9.02;;;9.20;99.90;;;;;;5095611;28;20028;-74
2024/01/04 08:32:55;;;;;;;26.75;9.65;;;9.20;99.90;;;;;;5095293;28;20061;-73
2024/01/04 08:35:21;;;;;;;25.00;9.07;;;9.20;99.90;;;;;;5095428;28;20032;-74
2024/01/04 08:37:47;;;;;;;24.90;9.30;;;9.10;99.90;;;;;;5095153;28;20031;-74
2024/01/04 08:40:13;;;;;;;26.27;10.13;;;9.20;99.90;;;;;;5094793;28;20111;-74
2024/01/04 08:42:39;;;;;;;25.75;8.85;;;9.10;99.90;;;;;;5094623;28;20032;-73
2024/01/04 08:45:06;;;;;;;29.38;9.68;;;9.20;99.90;;;;;;5094805;28;20062;-73
2024/01/04 08:47:31;;;;;;;30.88;9.50;;;9.20;99.90;;;;;;5094990;28;20371;-74
2024/01/04 08:50:00;;;;;;;39.20;10.82;;;9.20;99.90;;;;;;5094680;28;20093;-74
2024/01/04 08:52:28;;;;;;;25.55;10.40;;;9.40;99.90;;;;;;5095007;28;20044;-73
2024/01/04 08:54:54;;;;;;;22.98;10.50;;;9.60;99.90;;;;;;5094862;28;20486;-73
2024/01/04 08:57:20;;;;;;;28.05;9.95;;;9.90;99.90;;;;;;5094414;28;20525;-73
2024/01/04 08:59:45;;;;;;;24.73;10.68;;;10.00;99.90;;;;;;5094669;28;20035;-74
2024/01/04 09:02:11;;;;;;;25.10;10.07;;;10.30;99.90;;;;;;5094616;28;20039;-73
2024/01/04 09:04:37;;;;;;;23.13;10.60;;;10.30;99.90;;;;;;5094547;28;20036;-73
2024/01/04 09:07:02;;;;;;;22.40;9.30;;;10.30;99.90;;;;;;5094655;28;20070;-73
2024/01/04 09:09:28;;;;;;;23.70;9.23;;;10.30;99.90;;;;;;5094668;28;20036;-74
2024/01/04 09:11:54;;;;;;;23.17;9.10;;;10.30;99.90;;;;;;5094347;28;20024;-74
2024/01/04 09:14:19;;;;;;;27.95;9.90;;;10.10;99.90;;;;;;5094361;28;20028;-74
2024/01/04 09:16:46;;;;;;;23.17;10.02;;;10.00;99.90;;;;;;5094261;28;20044;-74
2024/01/04 09:19:19;;;;;;;23.52;9.00;;;10.00;99.90;;;;;;5094664;28;20554;-74
2024/01/04 09:21:49;;;;;;;25.95;9.50;;;9.90;99.90;;;;;;5094125;28;20040;-74
2024/01/04 09:24:14;;;;;;;24.10;9.25;;;9.90;99.90;;;;;;5094165;28;20036;-74
2024/01/04 09:26:44;;;;;;;25.27;9.60;;;9.80;99.90;;;;;;5094092;28;20020;-73
2024/01/04 09:29:11;;;;;;;23.85;10.05;;;9.80;99.90;;;;;;5094091;28;20032;-74
2024/01/04 09:31:37;;;;;;;24.63;9.63;;;9.70;99.90;;;;;;5094059;28;20035;-74
2024/01/04 09:34:03;;;;;;;22.50;9.07;;;9.70;99.90;;;;;;5092772;28;20029;-74
2024/01/04 09:36:30;;;;;;;25.25;9.50;;;9.80;99.90;;;;;;5094426;28;20051;-73
2024/01/04 09:38:55;;;;;;;23.08;9.23;;;9.70;99.90;;;;;;5093894;28;20401;-73
2024/01/04 09:41:30;;;;;;;22.80;9.75;;;9.70;99.90;;;;;;5093211;28;20032;-73
2024/01/04 09:44:01;;;;;;;21.55;10.50;;;9.70;99.90;;;;;;5093908;28;20024;-74
2024/01/04 09:46:33;;;;;;;26.70;10.00;;;9.70;99.90;;;;;;5093511;28;20051;-74
2024/01/04 09:48:59;;;;;;;27.20;10.65;;;9.80;99.90;;;;;;5093684;28;20149;-74
2024/01/04 09:51:29;;;;;;;24.40;11.48;;;9.80;99.90;;;;;;5093888;28;20485;-74
2024/01/04 09:53:55;;;;;;;21.15;11.02;;;9.80;99.90;;;;;;5093587;28;20032;-74
2024/01/04 09:56:25;;;;;;;29.65;12.25;;;9.90;99.90;;;;;;5093186;28;20016;-74
2024/01/04 09:58:52;;;;;;;26.23;11.70;;;9.90;99.90;;;;;;5093469;28;20103;-74
2024/01/04 10:01:33;;;;;;;26.10;11.38;;;9.90;99.90;;;;;;5093485;28;20023;-74
2024/01/04 10:04:07;;;;;;;27.73;10.52;;;9.90;99.90;;;;;;5093832;28;20054;-74
2024/01/04 10:06:35;;;;;;;26.33;9.55;;;9.90;99.90;;;;;;5093790;28;20028;-74
2024/01/04 10:09:22;;;;;;;20.95;8.88;;;9.90;99.90;;;;;;5093667;28;20063;-73
2024/01/04 10:12:07;;;;;;;18.60;8.25;;;9.90;99.90;;;;;;5093377;28;20493;-73
2024/01/04 10:14:34;;;;;;;16.13;8.20;;;10.00;99.90;;;;;;5093203;28;20612;-73
2024/01/04 10:17:00;;;;;;;18.45;8.95;;;10.00;99.90;;;;;;5093114;28;20023;-74
2024/01/04 10:19:27;;;;;;;23.75;9.35;;;10.00;99.90;;;;;;5092975;28;20027;-73
2024/01/04 10:21:53;;;;;;;17.27;8.80;;;10.10;99.90;;;;;;5093306;28;20077;-74
2024/01/04 10:24:23;;;;;;;19.80;8.63;;;10.20;99.90;;;;;;5093081;28;20110;-73
2024/01/04 10:27:01;;;;;;;22.77;8.43;;;10.20;99.90;;;;;;5093236;28;20161;-74
2024/01/04 10:29:28;;;;;;;16.83;8.40;;;10.30;99.90;;;;;;5092804;28;20035;-74
2024/01/04 10:32:04;;;;;;;19.23;9.10;;;10.30;99.90;;;;;;5093068;28;20049;-73
2024/01/04 10:34:33;;;;;;;18.48;8.10;;;10.40;99.90;;;;;;5093223;28;20042;-73
2024/01/04 10:37:12;;;;;;;16.63;7.47;;;10.50;99.90;;;;;;5092850;28;20024;-74
2024/01/04 10:39:39;;;;;;;17.98;7.05;;;10.60;99.90;;;;;;5092444;28;20024;-73
2024/01/04 10:42:05;;;;;;;21.00;7.60;;;10.70;99.90;;;;;;5092455;28;20031;-74
2024/01/04 10:44:33;;;;;;;22.23;7.93;;;11.00;99.90;;;;;;5092744;28;20375;-73
2024/01/04 10:47:00;;;;;;;21.50;8.20;;;11.20;99.90;;;;;;5092286;28;20048;-73
2024/01/04 10:49:26;;;;;;;22.65;9.48;;;11.30;99.90;;;;;;5092277;28;20064;-73
2024/01/04 10:51:55;;;;;;;20.60;9.27;;;11.60;99.90;;;;;;5093094;28;20366;-73
2024/01/04 10:54:27;;;;;;;17.40;7.40;;;11.70;99.90;;;;;;5091931;28;20030;-73
2024/01/04 10:56:54;;;;;;;15.60;6.45;;;11.90;99.90;;;;;;5092876;28;20524;-73
2024/01/04 10:59:22;;;;;;;13.32;5.55;;;12.10;99.90;;;;;;5092477;28;20420;-73
2024/01/04 11:01:47;;;;;;;12.32;4.82;;;12.20;99.90;;;;;;5092609;28;20103;-74
2024/01/04 11:04:14;;;;;;;10.95;4.00;;;12.20;99.90;;;;;;5092304;28;20103;-74
2024/01/04 11:06:40;;;;;;;10.10;3.92;;;12.20;99.90;;;;;;5092475;28;20073;-73
2024/01/04 11:09:09;;;;;;;13.32;4.60;;;12.10;99.90;;;;;;5091887;28;20040;-73
2024/01/04 11:11:36;;;;;;;11.68;3.90;;;12.10;99.90;;;;;;5091942;28;20028;-74
2024/01/04 11:14:02;;;;;;;11.82;4.28;;;12.10;99.90;;;;;;5092263;28;20026;-74
2024/01/04 11:16:40;;;;;;;11.32;4.10;;;12.10;99.90;;;;;;5092651;28;20020;-73
2024/01/04 11:19:40;;;;;;;10.82;3.50;;;12.10;99.90;;;;;;5092091;28;20603;-73
2024/01/04 11:22:41;;;;;;;12.80;3.78;;;12.10;99.90;;;;;;5091443;28;20030;-73
2024/01/04 11:25:16;;;;;;;10.65;3.55;;;12.10;99.90;;;;;;5050104;28;20091;-73
2024/01/04 11:27:42;;;;;;;9.82;3.92;;;12.10;99.90;;;;;;5049700;28;20311;-73
2024/01/04 11:30:10;;;;;;;10.93;3.47;;;12.10;99.90;;;;;;5049515;28;20045;-73
2024/01/04 11:32:36;;;;;;;11.18;3.60;;;12.10;99.90;;;;;;5049627;28;20040;-73
2024/01/04 11:35:02;;;;;;;12.95;3.70;;;12.10;99.90;;;;;;5050100;28;20052;-73
2024/01/04 11:37:28;;;;;;;11.13;3.17;;;12.00;99.90;;;;;;5049037;28;20201;-73
2024/01/04 11:40:03;;;;;;;10.88;3.13;;;12.10;99.90;;;;;;5049715;28;20100;-73
2024/01/04 11:42:42;;;;;;;13.05;3.83;;;12.10;99.90;;;;;;5049628;28;20045;-73
2024/01/04 11:45:18;;;;;;;10.68;3.25;;;12.10;99.90;;;;;;5049406;28;20124;-73
2024/01/04 11:47:46;;;;;;;8.13;3.22;;;12.10;99.90;;;;;;5049341;28;20022;-73
2024/01/04 11:50:21;;;;;;;12.75;3.25;;;12.20;99.90;;;;;;5049537;28;20403;-73
2024/01/04 11:52:47;;;;;;;11.65;3.28;;;12.20;99.90;;;;;;5049129;28;20511;-73
2024/01/04 11:55:26;;;;;;;10.77;3.13;;;12.30;99.90;;;;;;5049472;28;20221;-73
2024/01/04 11:58:11;;;;;;;14.57;3.65;;;12.40;99.90;;;;;;5051044;28;20040;-73
2024/01/04 12:00:47;;;;;;;13.30;3.25;;;12.40;99.90;;;;;;5053291;28;20086;-73
2024/01/04 12:03:17;;;;;;;12.88;3.40;;;12.40;99.90;;;;;;5095764;28;20390;-73
2024/01/04 12:05:44;;;;;;;12.23;3.42;;;12.50;99.90;;;;;;5095334;28;20039;-73
2024/01/04 12:08:22;;;;;;;10.68;2.83;;;12.50;99.90;;;;;;5095508;28;20020;-73
2024/01/04 12:10:52;;;;;;;12.90;3.22;;;12.60;99.90;;;;;;5095618;28;20111;-73
2024/01/04 12:13:18;;;;;;;11.48;3.30;;;12.70;99.90;;;;;;5095612;28;20416;-73
2024/01/04 12:15:44;;;;;;;7.55;2.83;;;12.70;99.90;;;;;;5095558;28;20363;-73
2024/01/04 12:18:10;;;;;;;11.15;2.95;;;12.70;99.90;;;;;;5095380;28;20035;-73
2024/01/04 12:20:35;;;;;;;11.60;3.45;;;12.70;99.90;;;;;;5095122;28;20028;-73
2024/01/04 12:23:04;;;;;;;11.77;3.25;;;12.80;99.90;;;;;;5095477;28;20028;-73
2024/01/04 12:25:30;;;;;;;12.43;3.85;;;12.80;99.90;;;;;;5095946;28;20104;-73
2024/01/04 12:27:56;;;;;;;10.45;3.28;;;12.80;99.90;;;;;;5095482;28;20043;-73
2024/01/04 12:30:22;;;;;;;11.75;3.42;;;12.90;99.90;;;;;;5095049;28;20116;-72
2024/01/04 12:32:50;;;;;;;13.02;3.08;;;13.20;99.90;;;;;;5095145;28;20490;-73
2024/01/04 12:35:16;;;;;;;13.68;3.35;;;13.20;99.90;;;;;;5094893;28;20028;-72
2024/01/04 12:37:42;;;;;;;11.57;3.53;;;13.30;99.90;;;;;;5095480;28;20028;-72